sensor_id;sensor_type;location;lat;lon;timestamp;pressure;altitude;pressure_sealevel;temperature;humidity
64886;BME280;51514;52.206;5.114;2023-02-03T00:00:43;102499.84;;;9.87;90.55
64886;BME280;51514;52.206;5.114;2023-02-03T00:03:09;102501.59;;;9.88;90.13
64886;BME280;51514;52.206;5.114;2023-02-03T00:05:34;102505.88;;;9.91;90.11
64886;BME280;51514;52.206;5.114;2023-02-03T00:08:02;102511.28;;;9.91;90.00
64886;BME280;51514;52.206;5.114;2023-02-03T00:10:28;102497.06;;;9.89;89.58
64886;BME280;51514;52.206;5.114;2023-02-03T00:12:53;102509.44;;;9.92;89.45
64886;BME280;51514;52.206;5.114;2023-02-03T00:15:19;102505.78;;;9.93;89.45
64886;BME280;51514;52.206;5.114;2023-02-03T00:17:44;102516.78;;;9.89;88.78
64886;BME280;51514;52.206;5.114;2023-02-03T00:20:10;102519.16;;;9.94;88.96
64886;BME280;51514;52.206;5.114;2023-02-03T00:22:36;102523.78;;;9.92;88.65
64886;BME280;51514;52.206;5.114;2023-02-03T00:25:02;102520.22;;;9.92;88.60
64886;BME280;51514;52.206;5.114;2023-02-03T00:27:28;102516.66;;;9.91;88.44
64886;BME280;51514;52.206;5.114;2023-02-03T00:29:53;102523.78;;;9.92;88.42
64886;BME280;51514;52.206;5.114;2023-02-03T00:32:18;102512.91;;;9.94;88.05
64886;BME280;51514;52.206;5.114;2023-02-03T00:34:44;102517.53;;;9.92;88.31
64886;BME280;51514;52.206;5.114;2023-02-03T00:37:11;102522.81;;;9.93;88.04
64886;BME280;51514;52.206;5.114;2023-02-03T00:39:37;102526.38;;;9.94;88.17
64886;BME280;51514;52.206;5.114;2023-02-03T00:42:04;102520.13;;;9.93;87.86
64886;BME280;51514;52.206;5.114;2023-02-03T00:44:29;102519.00;;;9.96;87.96
64886;BME280;51514;52.206;5.114;2023-02-03T00:46:55;102531.50;;;9.97;87.61
64886;BME280;51514;52.206;5.114;2023-02-03T00:49:20;102524.19;;;9.99;87.60
64886;BME280;51514;52.206;5.114;2023-02-03T00:51:45;102498.19;;;9.98;87.26
64886;BME280;51514;52.206;5.114;2023-02-03T00:54:11;102494.66;;;9.97;87.48
64886;BME280;51514;52.206;5.114;2023-02-03T00:56:38;102497.13;;;10.00;87.17
64886;BME280;51514;52.206;5.114;2023-02-03T00:59:03;102505.09;;;10.02;87.20
64886;BME280;51514;52.206;5.114;2023-02-03T01:01:29;102513.50;;;9.97;86.90
64886;BME280;51514;52.206;5.114;2023-02-03T01:03:54;102504.34;;;10.00;87.14
64886;BME280;51514;52.206;5.114;2023-02-03T01:06:20;102502.63;;;9.99;86.90
64886;BME280;51514;52.206;5.114;2023-02-03T01:08:46;102493.66;;;9.98;87.13
64886;BME280;51514;52.206;5.114;2023-02-03T01:11:22;102497.22;;;9.99;87.01
64886;BME280;51514;52.206;5.114;2023-02-03T01:13:49;102504.56;;;9.97;86.92
64886;BME280;51514;52.206;5.114;2023-02-03T01:16:18;102506.28;;;9.98;86.80
64886;BME280;51514;52.206;5.114;2023-02-03T01:18:44;102494.03;;;9.94;86.69
64886;BME280;51514;52.206;5.114;2023-02-03T01:21:16;102492.41;;;9.91;86.54
64886;BME280;51514;52.206;5.114;2023-02-03T01:23:42;102489.50;;;9.94;86.73
64886;BME280;51514;52.206;5.114;2023-02-03T01:26:10;102476.38;;;9.89;86.25
64886;BME280;51514;52.206;5.114;2023-02-03T01:28:36;102461.06;;;9.90;86.36
64886;BME280;51514;52.206;5.114;2023-02-03T01:31:17;102462.13;;;9.87;86.19
64886;BME280;51514;52.206;5.114;2023-02-03T01:33:44;102460.19;;;9.89;86.16
64886;BME280;51514;52.206;5.114;2023-02-03T01:36:13;102456.53;;;9.91;86.33
64886;BME280;51514;52.206;5.114;2023-02-03T01:38:39;102471.84;;;9.90;86.11
64886;BME280;51514;52.206;5.114;2023-02-03T01:41:06;102460.72;;;9.95;85.92
64886;BME280;51514;52.206;5.114;2023-02-03T01:43:38;102472.69;;;9.91;85.79
64886;BME280;51514;52.206;5.114;2023-02-03T01:46:32;102478.19;;;9.89;85.73
64886;BME280;51514;52.206;5.114;2023-02-03T01:49:21;102494.34;;;9.89;85.24
64886;BME280;51514;52.206;5.114;2023-02-03T01:51:49;102482.41;;;9.93;85.30
64886;BME280;51514;52.206;5.114;2023-02-03T01:54:19;102477.63;;;9.97;85.27
64886;BME280;51514;52.206;5.114;2023-02-03T01:56:53;102466.94;;;9.95;85.04
64886;BME280;51514;52.206;5.114;2023-02-03T01:59:21;102462.69;;;9.93;84.76
64886;BME280;51514;52.206;5.114;2023-02-03T02:01:49;102456.31;;;9.94;84.57
64886;BME280;51514;52.206;5.114;2023-02-03T02:04:16;102438.16;;;9.96;84.42
64886;BME280;51514;52.206;5.114;2023-02-03T02:06:41;102444.56;;;9.95;84.11
64886;BME280;51514;52.206;5.114;2023-02-03T02:09:07;102438.81;;;9.99;84.19
64886;BME280;51514;52.206;5.114;2023-02-03T02:11:33;102430.84;;;9.98;83.78
64886;BME280;51514;52.206;5.114;2023-02-03T02:14:00;102440.53;;;10.00;83.71
64886;BME280;51514;52.206;5.114;2023-02-03T02:16:42;102440.41;;;10.02;83.29
64886;BME280;51514;52.206;5.114;2023-02-03T02:19:27;102440.41;;;10.02;83.21
64886;BME280;51514;52.206;5.114;2023-02-03T02:22:08;102449.47;;;10.01;83.03
64886;BME280;51514;52.206;5.114;2023-02-03T02:30:33;102437.63;;;10.03;82.94
64886;BME280;51514;52.206;5.114;2023-02-03T02:36:07;102447.31;;;10.06;83.02
64886;BME280;51514;52.206;5.114;2023-02-03T02:38:59;102438.59;;;10.02;82.93
64886;BME280;51514;52.206;5.114;2023-02-03T02:41:29;102438.47;;;10.04;83.33
64886;BME280;51514;52.206;5.114;2023-02-03T02:46:36;102439.66;;;10.00;83.46
64886;BME280;51514;52.206;5.114;2023-02-03T02:49:22;102427.06;;;10.00;83.77
64886;BME280;51514;52.206;5.114;2023-02-03T02:51:49;102428.66;;;10.03;83.61
64886;BME280;51514;52.206;5.114;2023-02-03T02:54:22;102437.72;;;10.02;83.48
64886;BME280;51514;52.206;5.114;2023-02-03T02:56:55;102423.28;;;10.03;83.81
64886;BME280;51514;52.206;5.114;2023-02-03T02:59:21;102409.56;;;10.06;83.85
64886;BME280;51514;52.206;5.114;2023-02-03T03:01:46;102412.88;;;10.09;83.58
64886;BME280;51514;52.206;5.114;2023-02-03T03:04:14;102410.06;;;10.11;83.45
64886;BME280;51514;52.206;5.114;2023-02-03T03:06:45;102424.75;;;10.07;83.52
64886;BME280;51514;52.206;5.114;2023-02-03T03:09:16;102419.25;;;10.08;83.67
64886;BME280;51514;52.206;5.114;2023-02-03T03:11:52;102417.50;;;10.07;84.13
64886;BME280;51514;52.206;5.114;2023-02-03T03:14:22;102429.16;;;10.08;83.84
64886;BME280;51514;52.206;5.114;2023-02-03T03:16:53;102435.41;;;10.08;83.97
64886;BME280;51514;52.206;5.114;2023-02-03T03:19:24;102429.03;;;10.09;84.04
64886;BME280;51514;52.206;5.114;2023-02-03T03:21:54;102433.84;;;10.06;84.06
64886;BME280;51514;52.206;5.114;2023-02-03T03:24:26;102421.19;;;10.06;83.96
64886;BME280;51514;52.206;5.114;2023-02-03T03:29:21;102430.38;;;10.04;84.17
64886;BME280;51514;52.206;5.114;2023-02-03T03:31:49;102437.34;;;10.06;84.59
64886;BME280;51514;52.206;5.114;2023-02-03T03:34:15;102426.56;;;10.06;84.37
64886;BME280;51514;52.206;5.114;2023-02-03T03:36:46;102429.63;;;10.02;84.44
64886;BME280;51514;52.206;5.114;2023-02-03T03:39:21;102431.84;;;10.08;84.56
64886;BME280;51514;52.206;5.114;2023-02-03T03:44:27;102436.38;;;10.07;84.33
64886;BME280;51514;52.206;5.114;2023-02-03T03:47:00;102437.50;;;10.05;84.16
64886;BME280;51514;52.206;5.114;2023-02-03T03:49:29;102437.25;;;10.08;84.02
64886;BME280;51514;52.206;5.114;2023-02-03T03:52:00;102429.16;;;10.08;84.35
64886;BME280;51514;52.206;5.114;2023-02-03T03:54:28;102453.66;;;10.05;84.45
64886;BME280;51514;52.206;5.114;2023-02-03T03:56:57;102446.19;;;10.08;84.18
64886;BME280;51514;52.206;5.114;2023-02-03T03:59:28;102440.69;;;10.10;83.95
64886;BME280;51514;52.206;5.114;2023-02-03T04:01:56;102433.94;;;10.04;84.31
64886;BME280;51514;52.206;5.114;2023-02-03T04:04:23;102439.44;;;10.03;84.15
64886;BME280;51514;52.206;5.114;2023-02-03T04:06:52;102450.97;;;10.05;84.52
64886;BME280;51514;52.206;5.114;2023-02-03T04:09:17;102445.22;;;10.09;83.97
64886;BME280;51514;52.206;5.114;2023-02-03T04:11:42;102439.06;;;10.07;84.39
64886;BME280;51514;52.206;5.114;2023-02-03T04:14:27;102446.94;;;10.10;84.00
64886;BME280;51514;52.206;5.114;2023-02-03T04:16:54;102451.47;;;10.10;84.17
64886;BME280;51514;52.206;5.114;2023-02-03T04:19:20;102453.78;;;10.03;84.56
64886;BME280;51514;52.206;5.114;2023-02-03T04:21:45;102437.34;;;10.06;84.47
64886;BME280;51514;52.206;5.114;2023-02-03T04:24:10;102446.06;;;10.10;84.16
64886;BME280;51514;52.206;5.114;2023-02-03T04:26:36;102439.94;;;10.08;84.25
64886;BME280;51514;52.206;5.114;2023-02-03T04:29:02;102442.53;;;10.09;84.34
64886;BME280;51514;52.206;5.114;2023-02-03T04:31:27;102437.88;;;10.11;84.31
64886;BME280;51514;52.206;5.114;2023-02-03T04:33:53;102430.78;;;10.10;84.22
64886;BME280;51514;52.206;5.114;2023-02-03T04:36:18;102447.56;;;10.14;83.97
64886;BME280;51514;52.206;5.114;2023-02-03T04:38:44;102454.81;;;10.13;84.04
64886;BME280;51514;52.206;5.114;2023-02-03T04:41:09;102442.94;;;10.16;84.18
64886;BME280;51514;52.206;5.114;2023-02-03T04:43:34;102441.22;;;10.15;84.54
64886;BME280;51514;52.206;5.114;2023-02-03T04:45:59;102442.41;;;10.11;84.62
64886;BME280;51514;52.206;5.114;2023-02-03T04:48:25;102438.34;;;10.05;84.19
64886;BME280;51514;52.206;5.114;2023-02-03T04:50:51;102436.16;;;10.10;84.64
64886;BME280;51514;52.206;5.114;2023-02-03T04:53:16;102431.00;;;10.07;84.79
64886;BME280;51514;52.206;5.114;2023-02-03T04:55:45;102425.97;;;10.03;84.74
64886;BME280;51514;52.206;5.114;2023-02-03T04:58:11;102430.63;;;10.01;85.25
64886;BME280;51514;52.206;5.114;2023-02-03T05:00:36;102420.59;;;10.03;84.96
64886;BME280;51514;52.206;5.114;2023-02-03T05:03:01;102429.75;;;10.00;85.19
64886;BME280;51514;52.206;5.114;2023-02-03T05:05:27;102425.00;;;10.04;84.77
64886;BME280;51514;52.206;5.114;2023-02-03T05:07:52;102425.22;;;10.01;85.05
64886;BME280;51514;52.206;5.114;2023-02-03T05:10:18;102418.09;;;10.00;84.91
64886;BME280;51514;52.206;5.114;2023-02-03T05:12:43;102434.06;;;10.03;84.83
64886;BME280;51514;52.206;5.114;2023-02-03T05:15:08;102442.25;;;10.01;85.01
64886;BME280;51514;52.206;5.114;2023-02-03T05:17:34;102447.25;;;9.95;85.29
64886;BME280;51514;52.206;5.114;2023-02-03T05:20:03;102454.13;;;9.99;85.53
64886;BME280;51514;52.206;5.114;2023-02-03T05:22:29;102447.00;;;9.98;85.39
64886;BME280;51514;52.206;5.114;2023-02-03T05:24:54;102445.16;;;9.98;85.19
64886;BME280;51514;52.206;5.114;2023-02-03T05:27:19;102426.53;;;9.95;85.42
64886;BME280;51514;52.206;5.114;2023-02-03T05:29:45;102431.09;;;9.95;85.40
64886;BME280;51514;52.206;5.114;2023-02-03T05:32:10;102433.03;;;9.93;85.35
64886;BME280;51514;52.206;5.114;2023-02-03T05:34:35;102428.72;;;9.90;85.59
64886;BME280;51514;52.206;5.114;2023-02-03T05:37:01;102439.50;;;9.90;85.69
64886;BME280;51514;52.206;5.114;2023-02-03T05:39:28;102427.38;;;9.96;85.33
64886;BME280;51514;52.206;5.114;2023-02-03T05:41:53;102434.75;;;9.94;85.40
64886;BME280;51514;52.206;5.114;2023-02-03T05:44:20;102443.81;;;9.93;85.45
64886;BME280;51514;52.206;5.114;2023-02-03T05:46:46;102442.69;;;9.95;85.64
64886;BME280;51514;52.206;5.114;2023-02-03T05:49:11;102446.25;;;9.96;85.41
64886;BME280;51514;52.206;5.114;2023-02-03T05:51:37;102447.00;;;9.98;85.22
64886;BME280;51514;52.206;5.114;2023-02-03T05:54:03;102445.28;;;9.97;85.46
64886;BME280;51514;52.206;5.114;2023-02-03T05:56:29;102438.16;;;9.96;85.32
64886;BME280;51514;52.206;5.114;2023-02-03T05:58:54;102443.56;;;9.96;85.40
64886;BME280;51514;52.206;5.114;2023-02-03T06:01:19;102447.38;;;9.93;85.64
64886;BME280;51514;52.206;5.114;2023-02-03T06:03:46;102440.88;;;9.96;85.31
64886;BME280;51514;52.206;5.114;2023-02-03T06:06:11;102442.31;;;9.88;85.41
64886;BME280;51514;52.206;5.114;2023-02-03T06:08:37;102446.63;;;9.91;85.70
64886;BME280;51514;52.206;5.114;2023-02-03T06:11:02;102453.94;;;9.89;85.75
64886;BME280;51514;52.206;5.114;2023-02-03T06:13:28;102455.03;;;9.86;85.93
64886;BME280;51514;52.206;5.114;2023-02-03T06:15:53;102464.09;;;9.85;85.84
64886;BME280;51514;52.206;5.114;2023-02-03T06:18:19;102461.06;;;9.90;85.88
64886;BME280;51514;52.206;5.114;2023-02-03T06:20:44;102477.34;;;9.88;86.11
64886;BME280;51514;52.206;5.114;2023-02-03T06:23:10;102478.94;;;9.91;85.95
64886;BME280;51514;52.206;5.114;2023-02-03T06:25:35;102477.00;;;9.93;85.91
64886;BME280;51514;52.206;5.114;2023-02-03T06:28:00;102471.19;;;9.86;86.32
64886;BME280;51514;52.206;5.114;2023-02-03T06:30:26;102474.84;;;9.85;86.46
64886;BME280;51514;52.206;5.114;2023-02-03T06:32:51;102477.06;;;9.80;86.30
64886;BME280;51514;52.206;5.114;2023-02-03T06:35:17;102460.31;;;9.88;86.34
64886;BME280;51514;52.206;5.114;2023-02-03T06:37:44;102468.28;;;9.89;86.03
64886;BME280;51514;52.206;5.114;2023-02-03T06:40:10;102474.66;;;9.88;86.11
64886;BME280;51514;52.206;5.114;2023-02-03T06:42:35;102472.06;;;9.87;86.14
64886;BME280;51514;52.206;5.114;2023-02-03T06:45:01;102478.09;;;9.91;85.93
64886;BME280;51514;52.206;5.114;2023-02-03T06:47:26;102487.13;;;9.89;86.20
64886;BME280;51514;52.206;5.114;2023-02-03T06:49:51;102478.09;;;9.91;86.12
64886;BME280;51514;52.206;5.114;2023-02-03T06:52:17;102485.41;;;9.88;86.09
64886;BME280;51514;52.206;5.114;2023-02-03T06:54:42;102503.31;;;9.89;86.32
64886;BME280;51514;52.206;5.114;2023-02-03T06:57:08;102492.31;;;9.93;86.29
64886;BME280;51514;52.206;5.114;2023-02-03T06:59:33;102505.03;;;9.91;86.22
64886;BME280;51514;52.206;5.114;2023-02-03T07:01:58;102516.44;;;9.94;86.26
64886;BME280;51514;52.206;5.114;2023-02-03T07:04:24;102516.66;;;9.91;86.29
64886;BME280;51514;52.206;5.114;2023-02-03T07:06:52;102506.22;;;9.86;86.76
64886;BME280;51514;52.206;5.114;2023-02-03T07:09:17;102509.44;;;9.92;86.41
64886;BME280;51514;52.206;5.114;2023-02-03T07:11:43;102511.16;;;9.93;86.52
64886;BME280;51514;52.206;5.114;2023-02-03T07:14:08;102523.88;;;9.91;86.83
64886;BME280;51514;52.206;5.114;2023-02-03T07:16:33;102509.88;;;9.85;87.18
64886;BME280;51514;52.206;5.114;2023-02-03T07:19:01;102510.84;;;9.84;87.25
64886;BME280;51514;52.206;5.114;2023-02-03T07:21:27;102514.09;;;9.89;87.19
64886;BME280;51514;52.206;5.114;2023-02-03T07:23:52;102512.38;;;9.88;87.41
64886;BME280;51514;52.206;5.114;2023-02-03T07:26:17;102515.81;;;9.91;87.21
64886;BME280;51514;52.206;5.114;2023-02-03T07:28:43;102514.84;;;9.92;87.07
64886;BME280;51514;52.206;5.114;2023-02-03T07:31:09;102516.44;;;9.94;86.64
64886;BME280;51514;52.206;5.114;2023-02-03T07:33:35;102517.75;;;9.88;87.33
64886;BME280;51514;52.206;5.114;2023-02-03T07:36:01;102516.88;;;9.88;87.77
64886;BME280;51514;52.206;5.114;2023-02-03T07:38:27;102500.72;;;9.88;87.55
64886;BME280;51514;52.206;5.114;2023-02-03T07:40:53;102509.66;;;9.88;87.77
64886;BME280;51514;52.206;5.114;2023-02-03T07:43:19;102506.75;;;9.92;87.62
64886;BME280;51514;52.206;5.114;2023-02-03T07:45:45;102514.94;;;9.90;87.71
64886;BME280;51514;52.206;5.114;2023-02-03T07:48:11;102522.91;;;9.92;87.75
64886;BME280;51514;52.206;5.114;2023-02-03T07:50:36;102524.75;;;9.91;87.57
64886;BME280;51514;52.206;5.114;2023-02-03T07:53:02;102539.09;;;9.92;87.64
64886;BME280;51514;52.206;5.114;2023-02-03T07:55:27;102539.59;;;9.97;87.59
64886;BME280;51514;52.206;5.114;2023-02-03T07:57:54;102526.97;;;9.97;87.68
64886;BME280;51514;52.206;5.114;2023-02-03T08:00:20;102528.81;;;9.97;87.74
64886;BME280;51514;52.206;5.114;2023-02-03T08:02:45;102537.44;;;10.02;87.76
64886;BME280;51514;52.206;5.114;2023-02-03T08:05:12;102533.88;;;10.01;87.58
64886;BME280;51514;52.206;5.114;2023-02-03T08:07:37;102541.00;;;10.02;87.69
64886;BME280;51514;52.206;5.114;2023-02-03T08:10:04;102540.34;;;9.99;88.01
64886;BME280;51514;52.206;5.114;2023-02-03T08:12:30;102551.13;;;9.99;88.03
64886;BME280;51514;52.206;5.114;2023-02-03T08:14:55;102559.97;;;10.01;87.91
64886;BME280;51514;52.206;5.114;2023-02-03T08:17:21;102569.78;;;10.02;88.01
64886;BME280;51514;52.206;5.114;2023-02-03T08:19:46;102572.47;;;10.02;88.22
64886;BME280;51514;52.206;5.114;2023-02-03T08:22:11;102564.59;;;9.99;88.19
64886;BME280;51514;52.206;5.114;2023-02-03T08:24:46;102568.78;;;10.03;87.98
64886;BME280;51514;52.206;5.114;2023-02-03T08:27:13;102565.03;;;10.05;88.10
64886;BME280;51514;52.206;5.114;2023-02-03T08:29:40;102583.88;;;10.05;87.98
64886;BME280;51514;52.206;5.114;2023-02-03T08:32:08;102597.47;;;10.04;88.04
64886;BME280;51514;52.206;5.114;2023-02-03T08:34:34;102582.56;;;10.11;88.11
64886;BME280;51514;52.206;5.114;2023-02-03T08:36:59;102580.09;;;10.08;88.25
64886;BME280;51514;52.206;5.114;2023-02-03T08:39:25;102575.44;;;10.10;87.89
64886;BME280;51514;52.206;5.114;2023-02-03T08:41:51;102587.63;;;10.15;87.70
64886;BME280;51514;52.206;5.114;2023-02-03T08:44:16;102589.34;;;10.16;87.92
64886;BME280;51514;52.206;5.114;2023-02-03T08:46:44;102591.94;;;10.18;87.93
64886;BME280;51514;52.206;5.114;2023-02-03T08:49:10;102584.50;;;10.21;87.78
64886;BME280;51514;52.206;5.114;2023-02-03T08:51:36;102584.50;;;10.21;87.63
64886;BME280;51514;52.206;5.114;2023-02-03T08:54:01;102592.47;;;10.23;87.76
64886;BME280;51514;52.206;5.114;2023-02-03T08:56:27;102599.38;;;10.27;87.74
64886;BME280;51514;52.206;5.114;2023-02-03T08:58:53;102600.09;;;10.29;87.59
64886;BME280;51514;52.206;5.114;2023-02-03T09:01:18;102604.50;;;10.30;87.49
64886;BME280;51514;52.206;5.114;2023-02-03T09:03:44;102609.91;;;10.30;87.46
64886;BME280;51514;52.206;5.114;2023-02-03T09:06:10;102605.91;;;10.36;87.50
64886;BME280;51514;52.206;5.114;2023-02-03T09:08:41;102605.81;;;10.37;87.52
64886;BME280;51514;52.206;5.114;2023-02-03T09:11:11;102615.63;;;10.38;87.58
64886;BME280;51514;52.206;5.114;2023-02-03T09:13:37;102613.41;;;10.43;87.41
64886;BME280;51514;52.206;5.114;2023-02-03T09:16:05;102611.59;;;10.44;87.43
64886;BME280;51514;52.206;5.114;2023-02-03T09:18:31;102618.69;;;10.45;87.48
64886;BME280;51514;52.206;5.114;2023-02-03T09:21:05;102611.81;;;10.41;87.52
64886;BME280;51514;52.206;5.114;2023-02-03T09:23:30;102627.88;;;10.42;87.31
64886;BME280;51514;52.206;5.114;2023-02-03T09:26:00;102619.78;;;10.42;87.45
64886;BME280;51514;52.206;5.114;2023-02-03T09:28:26;102614.16;;;10.45;87.09
64886;BME280;51514;52.206;5.114;2023-02-03T09:30:51;102612.94;;;10.49;87.26
64886;BME280;51514;52.206;5.114;2023-02-03T09:33:16;102621.41;;;10.45;87.00
64886;BME280;51514;52.206;5.114;2023-02-03T09:35:50;102620.91;;;10.51;86.76
64886;BME280;51514;52.206;5.114;2023-02-03T09:38:16;102619.94;;;10.52;86.76
64886;BME280;51514;52.206;5.114;2023-02-03T09:40:41;102626.22;;;10.52;86.81
64886;BME280;51514;52.206;5.114;2023-02-03T09:45:47;102635.69;;;10.58;86.76
64886;BME280;51514;52.206;5.114;2023-02-03T09:48:20;102635.81;;;10.56;86.25
64886;BME280;51514;52.206;5.114;2023-02-03T09:50:47;102644.50;;;10.60;86.49
64886;BME280;51514;52.206;5.114;2023-02-03T09:53:36;102637.53;;;10.57;86.51
64886;BME280;51514;52.206;5.114;2023-02-03T09:56:21;102634.56;;;10.60;86.39
64886;BME280;51514;52.206;5.114;2023-02-03T09:58:50;102647.72;;;10.65;86.23
64886;BME280;51514;52.206;5.114;2023-02-03T10:01:15;102643.31;;;10.64;85.95
64886;BME280;51514;52.206;5.114;2023-02-03T10:03:50;102644.94;;;10.67;85.88
64886;BME280;51514;52.206;5.114;2023-02-03T10:17:13;102656.56;;;10.67;85.94
64886;BME280;51514;52.206;5.114;2023-02-03T10:22:46;102658.53;;;10.65;85.48
64886;BME280;51514;52.206;5.114;2023-02-03T10:27:39;102659.50;;;10.64;85.77
64886;BME280;51514;52.206;5.114;2023-02-03T10:32:44;102671.03;;;10.66;86.13
64886;BME280;51514;52.206;5.114;2023-02-03T10:35:13;102681.59;;;10.69;86.20
64886;BME280;51514;52.206;5.114;2023-02-03T10:40:04;102678.31;;;10.77;85.93
64886;BME280;51514;52.206;5.114;2023-02-03T10:42:30;102690.72;;;10.79;85.50
64886;BME280;51514;52.206;5.114;2023-02-03T10:45:17;102685.22;;;10.81;85.75
64886;BME280;51514;52.206;5.114;2023-02-03T10:47:47;102691.81;;;10.77;85.56
64886;BME280;51514;52.206;5.114;2023-02-03T10:50:25;102689.63;;;10.82;85.52
64886;BME280;51514;52.206;5.114;2023-02-03T10:55:43;102683.03;;;10.86;85.72
64886;BME280;51514;52.206;5.114;2023-02-03T10:58:15;102681.06;;;10.88;85.72
64886;BME280;51514;52.206;5.114;2023-02-03T11:00:40;102692.63;;;10.90;85.41
64886;BME280;51514;52.206;5.114;2023-02-03T11:05:34;102690.69;;;10.92;85.33
64886;BME280;51514;52.206;5.114;2023-02-03T11:08:00;102694.97;;;10.94;85.29
64886;BME280;51514;52.206;5.114;2023-02-03T11:10:30;102701.31;;;10.93;85.04
64886;BME280;51514;52.206;5.114;2023-02-03T11:13:18;102692.38;;;10.93;85.20
64886;BME280;51514;52.206;5.114;2023-02-03T11:18:53;102698.28;;;10.98;85.12
64886;BME280;51514;52.206;5.114;2023-02-03T11:26:46;102689.22;;;10.99;84.93
64886;BME280;51514;52.206;5.114;2023-02-03T11:29:28;102683.59;;;11.02;85.15
64886;BME280;51514;52.206;5.114;2023-02-03T11:31:57;102699.31;;;11.08;85.13
64886;BME280;51514;52.206;5.114;2023-02-03T11:34:32;102692.69;;;11.01;84.75
64886;BME280;51514;52.206;5.114;2023-02-03T11:37:30;102696.13;;;11.03;84.81
64886;BME280;51514;52.206;5.114;2023-02-03T11:40:12;102687.03;;;11.04;84.55
64886;BME280;51514;52.206;5.114;2023-02-03T11:45:23;102691.97;;;11.10;85.09
64886;BME280;51514;52.206;5.114;2023-02-03T11:47:55;102685.06;;;11.06;84.79
64886;BME280;51514;52.206;5.114;2023-02-03T11:53:24;102679.66;;;11.06;84.99
64886;BME280;51514;52.206;5.114;2023-02-03T11:56:04;102682.38;;;11.06;85.13
64886;BME280;51514;52.206;5.114;2023-02-03T12:06:11;102681.41;;;11.07;84.91
64886;BME280;51514;52.206;5.114;2023-02-03T12:08:52;102701.28;;;11.06;85.44
64886;BME280;51514;52.206;5.114;2023-02-03T12:14:09;102712.66;;;10.98;86.68
64886;BME280;51514;52.206;5.114;2023-02-03T12:21:49;102723.00;;;10.81;90.32
64886;BME280;51514;52.206;5.114;2023-02-03T12:24:25;102726.69;;;10.80;90.51
64886;BME280;51514;52.206;5.114;2023-02-03T12:27:33;102725.06;;;10.77;91.28
64886;BME280;51514;52.206;5.114;2023-02-03T12:30:14;102725.16;;;10.76;91.21
64886;BME280;51514;52.206;5.114;2023-02-03T12:32:56;102727.13;;;10.74;91.27
64886;BME280;51514;52.206;5.114;2023-02-03T12:38:04;102732.63;;;10.72;91.77
64886;BME280;51514;52.206;5.114;2023-02-03T12:43:35;102743.78;;;10.68;91.75
64886;BME280;51514;52.206;5.114;2023-02-03T12:51:36;102765.78;;;10.61;91.65
64886;BME280;51514;52.206;5.114;2023-02-03T13:03:26;102776.13;;;10.68;90.61
64886;BME280;51514;52.206;5.114;2023-02-03T13:08:36;102788.31;;;10.73;90.08
64886;BME280;51514;52.206;5.114;2023-02-03T13:14:14;102778.91;;;10.79;89.71
64886;BME280;51514;52.206;5.114;2023-02-03T13:16:44;102781.50;;;10.80;89.68
64886;BME280;51514;52.206;5.114;2023-02-03T13:19:27;102786.53;;;10.85;89.41
64886;BME280;51514;52.206;5.114;2023-02-03T13:21:53;102788.28;;;10.86;89.52
64886;BME280;51514;52.206;5.114;2023-02-03T13:24:22;102785.56;;;10.86;89.35
64886;BME280;51514;52.206;5.114;2023-02-03T13:27:01;102788.16;;;10.87;88.71
64886;BME280;51514;52.206;5.114;2023-02-03T13:30:03;102789.78;;;10.90;88.54
64886;BME280;51514;52.206;5.114;2023-02-03T13:41:03;102779.97;;;10.89;86.46
64886;BME280;51514;52.206;5.114;2023-02-03T13:43:37;102781.69;;;10.90;86.43
64886;BME280;51514;52.206;5.114;2023-02-03T13:46:05;102784.50;;;10.88;86.53
64886;BME280;51514;52.206;5.114;2023-02-03T13:48:33;102790.75;;;10.89;86.10
64886;BME280;51514;52.206;5.114;2023-02-03T13:51:06;102785.34;;;10.89;85.69
64886;BME280;51514;52.206;5.114;2023-02-03T13:53:35;102779.84;;;10.90;85.60
64886;BME280;51514;52.206;5.114;2023-02-03T13:56:03;102784.50;;;10.88;85.22
64886;BME280;51514;52.206;5.114;2023-02-03T13:58:33;102780.81;;;10.89;85.11
64886;BME280;51514;52.206;5.114;2023-02-03T14:01:00;102776.28;;;10.90;84.88
64886;BME280;51514;52.206;5.114;2023-02-03T14:05:54;102781.69;;;10.90;84.83
64886;BME280;51514;52.206;5.114;2023-02-03T14:16:38;102800.31;;;10.93;84.43
64886;BME280;51514;52.206;5.114;2023-02-03T14:24:30;102807.44;;;10.94;83.82
64886;BME280;51514;52.206;5.114;2023-02-03T14:26:57;102811.25;;;10.91;83.85
64886;BME280;51514;52.206;5.114;2023-02-03T14:29:25;102813.22;;;10.89;83.60
64886;BME280;51514;52.206;5.114;2023-02-03T14:32:04;102822.94;;;10.92;83.92
64886;BME280;51514;52.206;5.114;2023-02-03T14:34:43;102816.66;;;10.91;82.80
64886;BME280;51514;52.206;5.114;2023-02-03T14:37:19;102817.53;;;10.92;82.66
64886;BME280;51514;52.206;5.114;2023-02-03T14:42:56;102837.81;;;10.85;82.64
64886;BME280;51514;52.206;5.114;2023-02-03T14:56:16;102825.28;;;10.84;82.04
64886;BME280;51514;52.206;5.114;2023-02-03T14:59:05;102829.72;;;10.85;81.91
64886;BME280;51514;52.206;5.114;2023-02-03T15:09:56;102846.88;;;10.84;81.24
64886;BME280;51514;52.206;5.114;2023-02-03T15:11:57;102847.00;;;10.82;81.27
64886;BME280;51514;52.206;5.114;2023-02-03T15:14:31;102839.53;;;10.86;80.97
64886;BME280;51514;52.206;5.114;2023-02-03T15:17:01;102852.06;;;10.87;80.91
64886;BME280;51514;52.206;5.114;2023-02-03T15:19:36;102859.41;;;10.85;80.74
64886;BME280;51514;52.206;5.114;2023-02-03T15:22:21;102854.78;;;10.87;80.55
64886;BME280;51514;52.206;5.114;2023-02-03T15:24:48;102859.63;;;10.82;80.67
64886;BME280;51514;52.206;5.114;2023-02-03T15:27:26;102855.34;;;10.79;80.66
64886;BME280;51514;52.206;5.114;2023-02-03T15:29:52;102846.47;;;10.77;80.99
64886;BME280;51514;52.206;5.114;2023-02-03T15:34:51;102844.22;;;10.71;80.98